createdAt,value
2022-08-10T00:01:40.073Z,4.43
2022-08-10T00:04:08.124Z,4.23
2022-08-10T00:06:37.148Z,4.57
2022-08-10T00:09:06.520Z,4.60
2022-08-10T00:11:34.537Z,5.10
2022-08-10T00:14:02.465Z,4.10
2022-08-10T00:16:30.394Z,4.53
2022-08-10T00:18:58.365Z,4.73
2022-08-10T00:21:27.229Z,6.27
2022-08-10T00:23:55.364Z,5.73
2022-08-10T00:26:24.625Z,5.40
2022-08-10T00:28:52.540Z,5.00
2022-08-10T00:31:20.506Z,5.00
2022-08-10T00:33:48.397Z,5.60
2022-08-10T00:36:16.405Z,5.70
2022-08-10T00:38:44.429Z,6.00
2022-08-10T00:41:12.406Z,5.17
2022-08-10T00:43:41.790Z,6.60
2022-08-10T00:46:09.761Z,6.63
2022-08-10T00:48:37.796Z,6.10
2022-08-10T00:51:06.460Z,5.60
2022-08-10T00:53:34.600Z,5.23
2022-08-10T00:57:10.092Z,4.70
2022-08-10T00:58:51.972Z,5.37
2022-08-10T01:02:09.377Z,5.50
2022-08-10T01:04:57.608Z,4.23
2022-08-10T01:07:10.040Z,4.50
2022-08-10T01:09:55.800Z,4.90
2022-08-10T01:12:40.761Z,4.60
2022-08-10T01:15:19.908Z,4.77
2022-08-10T01:17:53.559Z,5.23
2022-08-10T01:20:30.844Z,4.37
2022-08-10T01:23:31.524Z,5.00
2022-08-10T01:26:30.815Z,4.70
2022-08-10T01:29:25.674Z,4.27
2022-08-10T01:31:58.635Z,4.10
2022-08-10T01:34:32.576Z,4.20
2022-08-10T01:37:06.026Z,4.50
2022-08-10T01:39:40.108Z,4.03
2022-08-10T01:42:10.426Z,4.53
2022-08-10T01:44:43.458Z,4.40
2022-08-10T01:47:33.844Z,4.80
2022-08-10T01:50:09.259Z,4.63
2022-08-10T01:52:38.700Z,4.07
2022-08-10T01:55:08.484Z,5.10
2022-08-10T01:57:38.635Z,4.23
2022-08-10T02:00:08.957Z,4.00
2022-08-10T02:02:40.456Z,4.50
2022-08-10T02:05:09.965Z,4.17
2022-08-10T02:07:41.973Z,4.10
2022-08-10T02:10:13.092Z,4.70
2022-08-10T02:12:44.125Z,4.97
2022-08-10T02:15:16.080Z,4.40
2022-08-10T02:18:00.595Z,4.67
2022-08-10T02:20:35.088Z,4.63
2022-08-10T02:23:06.359Z,4.40
2022-08-10T02:25:41.610Z,4.50
2022-08-10T02:28:27.337Z,4.67
2022-08-10T02:31:01.315Z,4.77
2022-08-10T02:33:31.557Z,4.60
2022-08-10T02:36:02.866Z,5.23
2022-08-10T02:38:59.831Z,4.60
2022-08-10T02:45:08.204Z,4.80
2022-08-10T02:45:23.388Z,4.50
2022-08-10T02:47:22.302Z,5.00
2022-08-10T02:50:00.166Z,4.53
2022-08-10T02:52:36.900Z,5.10
2022-08-10T02:55:18.197Z,4.97
2022-08-10T02:58:12.745Z,5.40
2022-08-10T03:00:45.393Z,4.63
2022-08-10T03:03:19.361Z,5.00
2022-08-10T03:05:51.986Z,4.60
2022-08-10T03:08:22.400Z,4.63
2022-08-10T03:10:52.137Z,5.30
2022-08-10T03:13:21.891Z,5.03
2022-08-10T03:15:52.451Z,4.97
2022-08-10T03:18:22.647Z,5.50
2022-08-10T03:20:55.002Z,4.53
2022-08-10T03:23:24.991Z,4.50
2022-08-10T03:25:55.880Z,4.67
2022-08-10T03:28:26.478Z,4.30
2022-08-10T03:30:55.741Z,4.43
2022-08-10T03:33:27.184Z,4.83
2022-08-10T03:36:41.485Z,4.40
2022-08-10T03:38:48.619Z,5.40
2022-08-10T03:41:18.343Z,4.53
2022-08-10T03:43:49.695Z,5.17
2022-08-10T03:46:21.013Z,4.70
2022-08-10T03:48:52.953Z,4.57
2022-08-10T03:51:23.757Z,4.93
2022-08-10T03:54:06.155Z,5.30
2022-08-10T03:56:37.507Z,5.20
2022-08-10T03:59:06.804Z,6.33
2022-08-10T04:02:46.747Z,5.30
2022-08-10T04:04:25.001Z,5.10
2022-08-10T04:06:55.903Z,5.17
2022-08-10T04:09:55.729Z,4.83
2022-08-10T04:12:14.718Z,4.97
2022-08-10T04:14:49.519Z,5.40
2022-08-10T04:17:59.394Z,5.27
2022-08-10T04:20:13.005Z,5.23
2022-08-10T04:22:44.423Z,5.10
2022-08-10T04:25:14.466Z,5.07
2022-08-10T04:27:43.119Z,5.13
2022-08-10T04:30:11.903Z,4.90
2022-08-10T04:32:42.137Z,5.77
2022-08-10T04:35:11.816Z,4.60
2022-08-10T04:37:46.801Z,4.93
2022-08-10T04:40:29.234Z,4.90
2022-08-10T04:43:04.468Z,4.70
2022-08-10T04:45:48.328Z,4.70
2022-08-10T04:48:40.136Z,4.50
2022-08-10T04:51:07.860Z,4.30
2022-08-10T04:54:04.441Z,4.77
2022-08-10T04:56:31.626Z,4.30
2022-08-10T04:59:00.312Z,5.93
2022-08-10T05:01:37.796Z,5.93
2022-08-10T05:04:34.142Z,6.57
2022-08-10T05:07:04.453Z,6.80
2022-08-10T05:09:32.382Z,6.57
2022-08-10T05:12:01.655Z,5.70
2022-08-10T05:14:29.533Z,4.70
2022-08-10T05:16:57.455Z,5.27
2022-08-10T05:20:04.403Z,5.13
2022-08-10T05:22:14.094Z,5.43
2022-08-10T05:24:42.010Z,5.53
2022-08-10T05:27:11.381Z,6.17
2022-08-10T05:29:39.328Z,6.03
2022-08-10T05:32:07.527Z,6.00
2022-08-10T05:34:35.456Z,4.77
2022-08-10T05:37:04.112Z,4.80
2022-08-10T05:39:33.437Z,4.63
2022-08-10T05:42:02.881Z,4.50
2022-08-10T05:44:32.178Z,4.60
2022-08-10T05:47:00.080Z,4.37
2022-08-10T05:49:28.016Z,4.77
2022-08-10T05:51:56.018Z,4.40
2022-08-10T05:54:25.768Z,4.57
2022-08-10T05:56:58.083Z,4.00
2022-08-10T06:00:30.732Z,3.77
2022-08-10T06:02:30.967Z,4.10
2022-08-10T06:05:08.449Z,4.20
2022-08-10T06:07:40.691Z,4.33
2022-08-10T06:10:12.261Z,4.27
2022-08-10T06:12:55.150Z,4.00
2022-08-10T06:15:51.480Z,4.37
2022-08-10T06:18:15.933Z,4.00
2022-08-10T06:20:44.016Z,4.13
2022-08-10T06:23:13.161Z,4.03
2022-08-10T06:26:09.554Z,4.13
2022-08-10T06:28:32.060Z,4.90
2022-08-10T06:31:02.653Z,6.20
2022-08-10T06:33:34.448Z,5.40
2022-08-10T06:36:04.327Z,5.50
2022-08-10T06:38:34.851Z,5.60
2022-08-10T06:41:10.152Z,4.07
2022-08-10T06:43:42.256Z,5.30
2022-08-10T06:46:14.229Z,5.90
2022-08-10T06:48:50.704Z,5.30
2022-08-10T06:51:23.873Z,7.07
2022-08-10T06:53:55.496Z,3.90
2022-08-10T06:56:36.464Z,4.20
2022-08-10T06:59:13.301Z,4.20
2022-08-10T10:35:36.351Z,4.50
2022-08-10T10:38:07.637Z,3.40
2022-08-10T10:40:43.310Z,3.40
2022-08-10T10:43:23.309Z,2.90
2022-08-10T10:46:04.468Z,4.37
2022-08-10T10:48:41.421Z,5.03
2022-08-10T10:51:17.481Z,10.03
2022-08-10T10:54:04.769Z,3.93
2022-08-10T10:56:42.135Z,2.80
2022-08-10T10:59:56.207Z,3.30
2022-08-10T11:02:20.076Z,5.27
2022-08-10T11:04:59.058Z,5.77
2022-08-10T11:07:33.949Z,3.93
2022-08-10T11:10:09.728Z,5.00
2022-08-10T11:14:25.622Z,2.67
2022-08-10T11:16:10.138Z,5.40
2022-08-10T11:18:58.678Z,2.83
2022-08-10T11:21:38.500Z,3.97
2022-08-10T11:24:42.621Z,3.33
2022-08-10T11:27:09.872Z,3.00
2022-08-10T11:29:58.681Z,2.60
2022-08-10T11:32:33.870Z,3.40
2022-08-10T11:35:12.493Z,2.80
2022-08-10T11:38:33.059Z,2.70
2022-08-10T11:40:45.216Z,2.70
2022-08-10T11:43:19.182Z,2.53
2022-08-10T11:45:55.364Z,3.00
2022-08-10T11:48:53.988Z,2.83
2022-08-10T11:51:26.466Z,4.13
2022-08-10T11:54:05.097Z,2.93
2022-08-10T11:56:44.073Z,3.10
2022-08-10T11:59:30.125Z,2.83
2022-08-10T12:01:59.094Z,3.03
2022-08-10T12:04:28.923Z,3.03
2022-08-10T12:06:58.926Z,2.97
2022-08-10T12:10:05.907Z,3.17
2022-08-10T12:12:19.243Z,4.40
2022-08-10T12:14:56.363Z,3.40
2022-08-10T12:17:30.075Z,2.90
2022-08-10T12:20:06.614Z,3.43
2022-08-10T12:22:42.400Z,3.27
2022-08-10T12:25:54.806Z,3.10
2022-08-10T12:28:11.179Z,3.20
2022-08-10T12:30:46.057Z,3.23
2022-08-10T12:33:22.178Z,3.27
2022-08-10T12:36:15.235Z,2.60
2022-08-10T12:38:47.508Z,3.33
2022-08-10T12:41:44.736Z,3.43
2022-08-10T12:44:19.290Z,3.30
2022-08-10T12:46:55.933Z,3.20
2022-08-10T12:49:31.440Z,3.23
2022-08-10T12:52:04.346Z,3.10
2022-08-10T12:54:37.382Z,3.37
2022-08-10T12:57:09.991Z,3.10
2022-08-10T12:59:43.865Z,3.23
2022-08-10T13:02:19.908Z,2.70
2022-08-10T13:04:51.243Z,3.10
2022-08-10T13:08:25.188Z,2.90
2022-08-10T13:10:16.077Z,3.10
2022-08-10T13:12:47.357Z,2.47
2022-08-10T13:15:46.064Z,2.60
2022-08-10T13:18:18.505Z,3.00
2022-08-10T13:20:52.531Z,3.17
2022-08-10T13:23:23.561Z,2.77
2022-08-10T13:25:52.942Z,3.50
2022-08-10T13:28:35.910Z,3.67
2022-08-10T13:31:17.007Z,2.80
2022-08-10T13:34:36.603Z,2.47
2022-08-10T13:36:40.787Z,3.00
2022-08-10T13:39:10.381Z,3.00
2022-08-10T13:41:41.024Z,2.60
2022-08-10T13:44:12.620Z,2.80
2022-08-10T13:46:49.002Z,2.80
2022-08-10T13:49:18.903Z,3.17
2022-08-10T13:51:56.473Z,3.30
2022-08-10T13:54:29.793Z,3.60
2022-08-10T13:56:58.846Z,3.20
2022-08-10T14:00:34.691Z,2.77
2022-08-10T14:02:26.030Z,5.70
2022-08-10T14:04:56.418Z,3.43
2022-08-10T14:07:26.969Z,2.60
2022-08-10T14:10:01.227Z,2.90
2022-08-10T14:12:32.208Z,3.07
2022-08-10T14:15:03.517Z,3.10
2022-08-10T14:17:34.061Z,3.10
2022-08-10T14:20:03.997Z,2.70
2022-08-10T14:22:35.688Z,3.13
2022-08-10T14:25:08.779Z,2.87
2022-08-10T14:28:02.094Z,3.00
2022-08-10T14:30:30.869Z,2.57
2022-08-10T14:33:04.616Z,2.67
2022-08-10T14:36:18.940Z,2.90
2022-08-10T14:38:29.137Z,3.00
2022-08-10T14:41:00.990Z,2.83
2022-08-10T14:43:34.442Z,3.50
2022-08-10T14:46:05.953Z,3.27
2022-08-10T14:48:40.950Z,3.10
2022-08-10T14:51:10.909Z,2.77
2022-08-10T14:53:42.539Z,2.73
2022-08-10T14:56:13.653Z,2.97
2022-08-10T14:59:06.262Z,2.60
2022-08-10T15:02:01.035Z,2.87
2022-08-10T15:04:28.738Z,3.10
2022-08-10T15:07:00.942Z,2.80
2022-08-10T15:10:00.102Z,2.90
2022-08-10T15:12:26.347Z,3.00
2022-08-10T15:15:00.782Z,3.23
2022-08-10T15:17:35.201Z,3.73
2022-08-10T15:20:15.073Z,3.20
2022-08-10T15:22:50.416Z,3.23
2022-08-10T15:25:24.855Z,2.90
2022-08-10T15:27:58.001Z,2.77
2022-08-10T15:30:40.463Z,3.17
2022-08-10T15:33:57.860Z,3.17
2022-08-10T15:36:37.224Z,3.10
2022-08-10T15:40:24.507Z,3.47
2022-08-10T15:42:11.502Z,3.20
2022-08-10T15:44:42.020Z,3.60
2022-08-10T15:47:16.878Z,3.10
2022-08-10T15:49:51.817Z,2.73
2022-08-10T15:52:40.083Z,3.23
2022-08-10T15:55:42.432Z,3.33
2022-08-10T15:58:09.072Z,3.10
2022-08-10T16:00:40.746Z,2.97
2022-08-10T16:03:15.338Z,2.83
2022-08-10T16:06:01.931Z,3.13
2022-08-10T16:08:56.001Z,2.93
2022-08-10T16:11:38.142Z,3.07
2022-08-10T16:14:11.170Z,3.10
2022-08-10T16:16:40.982Z,2.93
2022-08-10T16:19:22.242Z,3.37
2022-08-10T16:21:57.974Z,3.30
2022-08-10T16:24:31.076Z,2.73
2022-08-10T16:27:03.826Z,3.20
2022-08-10T16:29:33.218Z,3.13
2022-08-10T16:32:22.418Z,3.67
2022-08-10T16:34:52.749Z,4.00
2022-08-10T16:37:21.950Z,3.47
2022-08-10T16:39:56.880Z,2.80
2022-08-10T16:42:31.391Z,2.70
2022-08-10T16:45:03.742Z,2.70
2022-08-10T16:47:35.553Z,2.93
2022-08-10T16:50:07.454Z,2.40
2022-08-10T16:52:36.294Z,2.70
2022-08-10T16:55:23.730Z,3.00
2022-08-10T16:58:00.237Z,3.37
2022-08-10T17:00:29.696Z,2.83
2022-08-10T17:03:02.688Z,3.03
2022-08-10T17:06:09.925Z,3.07
2022-08-10T17:08:48.543Z,2.90
2022-08-10T17:11:21.944Z,3.50
2022-08-10T17:13:50.576Z,3.30
2022-08-10T17:16:20.660Z,3.10
2022-08-10T17:18:49.535Z,3.37
2022-08-10T17:21:21.866Z,3.13
2022-08-10T17:23:53.098Z,3.63
2022-08-10T17:26:35.282Z,3.00
2022-08-10T17:29:53.332Z,3.20
2022-08-10T17:32:01.334Z,3.07
2022-08-10T17:34:37.330Z,3.40
2022-08-10T17:37:09.331Z,3.73
2022-08-10T17:39:46.418Z,3.70
2022-08-10T17:42:21.871Z,3.40
2022-08-10T17:44:53.653Z,3.40
2022-08-10T17:47:27.036Z,2.80
2022-08-10T17:49:57.920Z,3.10
2022-08-10T17:52:28.814Z,3.03
2022-08-10T17:55:00.934Z,3.80
2022-08-10T17:57:36.114Z,3.17
2022-08-10T18:00:07.974Z,3.23
2022-08-10T18:02:40.212Z,3.17
2022-08-10T18:05:10.829Z,3.17
2022-08-10T18:07:43.034Z,3.33
2022-08-10T18:10:16.027Z,3.60
2022-08-10T18:12:47.752Z,3.50
2022-08-10T18:15:19.289Z,3.70
2022-08-10T18:17:50.545Z,3.57
2022-08-10T18:20:28.176Z,3.73
2022-08-10T18:22:58.374Z,3.13
2022-08-10T18:25:32.007Z,3.93
2022-08-10T18:28:04.951Z,3.30
2022-08-10T18:30:37.247Z,3.17
2022-08-10T18:33:11.916Z,3.30
2022-08-10T18:35:40.637Z,3.53
2022-08-10T18:38:10.453Z,3.63
2022-08-10T18:40:44.458Z,3.93
2022-08-10T18:44:11.097Z,3.33
2022-08-10T18:46:17.824Z,3.10
2022-08-10T18:48:50.647Z,3.10
2022-08-10T18:51:25.994Z,3.40
2022-08-10T18:53:58.833Z,3.33
2022-08-10T18:56:40.397Z,4.50
2022-08-10T18:59:29.153Z,4.10
2022-08-10T19:02:14.759Z,4.00
2022-08-10T19:05:04.564Z,3.40
2022-08-10T19:08:30.248Z,4.10
2022-08-10T19:11:04.280Z,3.47
2022-08-10T19:13:41.066Z,3.70
2022-08-10T19:16:35.744Z,3.30
2022-08-10T19:19:22.597Z,4.20
2022-08-10T19:22:03.167Z,3.87
2022-08-10T19:24:43.953Z,3.87
2022-08-10T19:27:21.797Z,3.50
2022-08-10T19:30:11.757Z,3.90
2022-08-10T19:33:00.872Z,4.83
2022-08-10T19:36:03.508Z,6.57
2022-08-10T19:38:49.328Z,6.00
2022-08-10T19:41:32.777Z,6.27
2022-08-10T19:44:19.256Z,4.47
2022-08-10T19:47:03.727Z,4.50
2022-08-10T19:49:44.995Z,3.20
2022-08-10T19:52:26.745Z,3.50
2022-08-10T19:55:01.303Z,3.30
2022-08-10T19:57:34.772Z,3.00
2022-08-10T20:00:18.564Z,3.20
2022-08-10T20:03:07.526Z,3.60
2022-08-10T20:06:18.020Z,3.00
2022-08-10T20:08:48.264Z,3.70
2022-08-10T20:11:44.069Z,3.93
2022-08-10T20:14:22.304Z,3.93
2022-08-10T20:16:55.805Z,3.67
2022-08-10T20:19:52.492Z,4.37
2022-08-10T20:22:29.402Z,4.40
2022-08-10T20:25:09.194Z,4.43
2022-08-10T20:28:00.755Z,4.13
2022-08-10T20:30:36.188Z,4.23
2022-08-10T20:33:10.408Z,3.90
2022-08-10T20:35:48.641Z,3.90
2022-08-10T20:38:27.615Z,4.17
2022-08-10T20:41:16.586Z,5.17
2022-08-10T20:43:53.645Z,4.80
2022-08-10T20:46:29.640Z,4.20
2022-08-10T20:49:01.772Z,3.70
2022-08-10T20:51:57.877Z,4.10
2022-08-10T20:54:32.630Z,5.07
2022-08-10T20:57:55.524Z,4.40
2022-08-10T21:00:10.886Z,4.10
2022-08-10T21:03:06.999Z,3.30
2022-08-10T21:05:52.942Z,4.00
2022-08-10T21:08:33.741Z,3.67
2022-08-10T21:11:13.725Z,3.30
2022-08-10T21:13:54.900Z,3.80
2022-08-10T21:16:37.751Z,3.70
2022-08-10T21:19:41.546Z,3.40
2022-08-10T21:22:26.358Z,3.47
2022-08-10T21:25:01.422Z,3.87
2022-08-10T21:28:00.369Z,3.60
2022-08-10T21:30:51.084Z,3.47
2022-08-10T21:33:31.165Z,3.43
2022-08-10T21:36:09.725Z,3.77
2022-08-10T21:38:48.698Z,3.30
2022-08-10T21:41:57.408Z,3.47
2022-08-10T21:45:11.276Z,3.20
2022-08-10T21:48:17.232Z,3.03
2022-08-10T21:51:14.709Z,3.70
2022-08-10T21:54:17.843Z,3.30
2022-08-10T21:57:09.887Z,3.57
2022-08-10T22:00:01.042Z,3.40
2022-08-10T22:02:51.011Z,3.50
2022-08-10T22:05:42.609Z,4.30
2022-08-10T22:08:30.236Z,3.67
2022-08-10T22:11:17.603Z,3.47
2022-08-10T22:14:06.635Z,3.50
2022-08-10T22:17:07.516Z,3.20
2022-08-10T22:20:21.365Z,3.33
2022-08-10T22:23:54.260Z,3.47
2022-08-10T22:26:56.620Z,2.97
2022-08-10T22:29:54.922Z,3.47
2022-08-10T22:32:55.251Z,3.50
2022-08-10T22:36:14.925Z,3.33
2022-08-10T22:39:16.605Z,3.60
2022-08-10T22:42:57.972Z,3.07
2022-08-10T22:45:41.249Z,3.30
2022-08-10T22:48:28.545Z,3.30
2022-08-10T22:51:06.682Z,3.43
2022-08-10T22:53:56.537Z,3.80
2022-08-10T22:56:42.917Z,3.70
2022-08-10T22:59:12.276Z,3.57
2022-08-10T23:02:08.940Z,3.50
2022-08-10T23:04:44.963Z,3.70
2022-08-10T23:07:21.691Z,3.53
2022-08-10T23:09:58.215Z,3.53
2022-08-10T23:12:32.237Z,3.83
2022-08-10T23:15:20.122Z,3.63
2022-08-10T23:18:10.810Z,3.43
2022-08-10T23:20:43.086Z,3.97
2022-08-10T23:23:23.843Z,3.20
2022-08-10T23:25:56.649Z,3.83
2022-08-10T23:28:58.481Z,3.93
2022-08-10T23:31:17.709Z,3.33
2022-08-10T23:34:07.500Z,4.27
2022-08-10T23:36:40.947Z,4.10
2022-08-10T23:39:24.340Z,4.33
2022-08-10T23:42:06.963Z,3.80
2022-08-10T23:44:39.054Z,3.80
2022-08-10T23:47:08.813Z,3.60
2022-08-10T23:49:38.670Z,3.70
2022-08-10T23:52:26.801Z,4.17
2022-08-10T23:54:58.013Z,4.00
2022-08-10T23:57:38.928Z,3.77
